createdAt,value
2019-01-18T00:02:28.024Z,100106.00
2019-01-18T00:04:58.359Z,100116.00
2019-01-18T00:07:28.588Z,100123.00
2019-01-18T00:09:58.847Z,100126.00
2019-01-18T00:12:29.234Z,100129.00
2019-01-18T00:14:59.587Z,100151.00
2019-01-18T00:17:29.972Z,100151.00
2019-01-18T00:20:00.369Z,100149.00
2019-01-18T00:22:30.824Z,100147.00
2019-01-18T00:25:01.161Z,100176.00
2019-01-18T00:27:31.517Z,100172.00
2019-01-18T00:30:01.894Z,100178.00
2019-01-18T00:32:32.204Z,100182.00
2019-01-18T00:35:02.602Z,100175.00
2019-01-18T00:37:32.924Z,100187.00
2019-01-18T00:40:03.372Z,100190.00
2019-01-18T00:42:33.720Z,100215.00
2019-01-18T00:45:04.660Z,100205.00
2019-01-18T00:47:35.227Z,100220.00
2019-01-18T00:50:07.026Z,100219.00
2019-01-18T00:52:37.521Z,100223.00
2019-01-18T00:55:08.230Z,100230.00
2019-01-18T00:57:38.649Z,100235.00
2019-01-18T01:00:13.679Z,100229.00
2019-01-18T01:02:44.028Z,100254.00
2019-01-18T01:05:14.529Z,100255.00
2019-01-18T01:07:44.996Z,100254.00
2019-01-18T01:10:15.428Z,100273.00
2019-01-18T01:12:45.758Z,100273.00
2019-01-18T01:15:17.818Z,100281.00
2019-01-18T01:17:48.639Z,100301.00
2019-01-18T01:20:20.836Z,100299.00
2019-01-18T01:22:51.271Z,100297.00
2019-01-18T01:25:21.844Z,100307.00
2019-01-18T01:27:52.158Z,100315.00
2019-01-18T01:30:24.784Z,100315.00
2019-01-18T01:32:55.845Z,100338.00
2019-01-18T01:35:26.135Z,100349.00
2019-01-18T01:37:56.483Z,100350.00
2019-01-18T01:40:28.804Z,100363.00
2019-01-18T01:42:59.152Z,100361.00
2019-01-18T01:45:29.766Z,100380.00
2019-01-18T01:48:00.455Z,100386.00
2019-01-18T01:50:30.759Z,100382.00
2019-01-18T01:53:01.066Z,100389.00
2019-01-18T01:55:31.350Z,100398.00
2019-01-18T01:58:01.719Z,100393.00
2019-01-18T02:00:31.995Z,100402.00
2019-01-18T02:03:02.403Z,100413.00
2019-01-18T02:05:32.726Z,100417.00
2019-01-18T02:08:03.072Z,100420.00
2019-01-18T02:10:33.458Z,100410.00
2019-01-18T02:13:03.700Z,100428.00
2019-01-18T02:15:34.042Z,100435.00
2019-01-18T02:18:04.373Z,100442.00
2019-01-18T02:20:34.762Z,100444.00
2019-01-18T02:23:05.117Z,100450.00
2019-01-18T02:25:35.363Z,100465.00
2019-01-18T02:28:05.726Z,100462.00
2019-01-18T02:30:35.959Z,100482.00
2019-01-18T02:33:06.222Z,100477.00
2019-01-18T02:35:36.421Z,100476.00
2019-01-18T02:38:06.741Z,100493.00
2019-01-18T02:40:36.984Z,100498.00
2019-01-18T02:43:07.253Z,100497.00
2019-01-18T02:45:37.494Z,100503.00
2019-01-18T02:48:09.959Z,100505.00
2019-01-18T02:50:40.175Z,100515.00
2019-01-18T02:53:10.443Z,100501.00
2019-01-18T02:55:40.660Z,100511.00
2019-01-18T02:58:10.915Z,100523.00
2019-01-18T03:00:41.129Z,100523.00
2019-01-18T03:03:11.438Z,100517.00
2019-01-18T03:05:41.999Z,100516.00
2019-01-18T03:08:12.179Z,100522.00
2019-01-18T03:10:42.444Z,100516.00
2019-01-18T03:13:15.892Z,100532.00
2019-01-18T03:15:46.021Z,100533.00
2019-01-18T03:18:16.742Z,100544.00
2019-01-18T03:20:47.006Z,100549.00
2019-01-18T03:23:20.010Z,100549.00
2019-01-18T03:25:50.215Z,100555.00
2019-01-18T03:28:20.500Z,100565.00
2019-01-18T03:30:50.733Z,100566.00
2019-01-18T03:33:21.005Z,100571.00
2019-01-18T03:35:51.510Z,100573.00
2019-01-18T03:38:22.048Z,100568.00
2019-01-18T03:40:52.285Z,100578.00
2019-01-18T03:43:22.630Z,100578.00
2019-01-18T03:45:52.860Z,100596.00
2019-01-18T03:48:23.394Z,100595.00
2019-01-18T03:50:53.602Z,100602.00
2019-01-18T03:53:23.906Z,100601.00
2019-01-18T03:55:54.127Z,100618.00
2019-01-18T03:58:24.380Z,100608.00
2019-01-18T04:00:54.662Z,100612.00
2019-01-18T04:03:24.831Z,100625.00
2019-01-18T04:05:55.186Z,100626.00
2019-01-18T04:08:25.558Z,100630.00
2019-01-18T04:10:55.745Z,100638.00
2019-01-18T04:13:26.020Z,100638.00
2019-01-18T04:15:56.274Z,100634.00
2019-01-18T04:18:26.501Z,100648.00
2019-01-18T04:20:56.880Z,100653.00
2019-01-18T04:23:27.177Z,100647.00
2019-01-18T04:25:57.491Z,100654.00
2019-01-18T04:28:27.700Z,100664.00
2019-01-18T04:30:57.924Z,100659.00
2019-01-18T04:33:28.189Z,100659.00
2019-01-18T04:35:58.385Z,100662.00
2019-01-18T04:38:28.667Z,100671.00
2019-01-18T04:40:58.893Z,100674.00
2019-01-18T04:43:29.163Z,100684.00
2019-01-18T04:45:59.462Z,100691.00
2019-01-18T04:48:30.142Z,100687.00
2019-01-18T04:51:00.368Z,100697.00
2019-01-18T04:53:30.731Z,100696.00
2019-01-18T04:56:00.946Z,100699.00
2019-01-18T04:58:31.187Z,100698.00
2019-01-18T05:01:01.529Z,100708.00
2019-01-18T05:03:31.699Z,100695.00
2019-01-18T05:06:01.887Z,100703.00
2019-01-18T05:08:32.050Z,100699.00
2019-01-18T05:11:03.523Z,100710.00
2019-01-18T05:13:36.041Z,100716.00
2019-01-18T05:16:07.839Z,100721.00
2019-01-18T05:18:38.184Z,100723.00
2019-01-18T05:21:08.524Z,100726.00
2019-01-18T05:23:38.796Z,100736.00
2019-01-18T05:26:09.076Z,100739.00
2019-01-18T05:28:39.292Z,100741.00
2019-01-18T05:31:09.588Z,100748.00
2019-01-18T05:33:39.896Z,100758.00
2019-01-18T05:36:10.334Z,100763.00
2019-01-18T05:38:40.690Z,100755.00
2019-01-18T05:41:10.958Z,100763.00
2019-01-18T05:43:41.270Z,100769.00
2019-01-18T05:46:11.517Z,100765.00
2019-01-18T05:48:42.004Z,100775.00
2019-01-18T05:51:12.205Z,100775.00
2019-01-18T05:53:42.517Z,100779.00
2019-01-18T05:56:12.955Z,100787.00
2019-01-18T05:58:43.356Z,100781.00
2019-01-18T06:01:14.782Z,100794.00
2019-01-18T06:03:44.940Z,100790.00
2019-01-18T06:06:15.151Z,100794.00
2019-01-18T06:08:45.272Z,100793.00
2019-01-18T06:11:15.570Z,100807.00
2019-01-18T06:13:45.756Z,100812.00
2019-01-18T06:16:15.907Z,100815.00
2019-01-18T06:18:46.148Z,100823.00
2019-01-18T06:21:16.245Z,100811.00
2019-01-18T06:23:46.574Z,100832.00
2019-01-18T06:26:17.053Z,100832.00
2019-01-18T06:28:47.353Z,100850.00
2019-01-18T06:31:17.780Z,100845.00
2019-01-18T06:33:48.157Z,100850.00
2019-01-18T06:36:18.411Z,100846.00
2019-01-18T06:38:48.627Z,100858.00
2019-01-18T06:41:37.825Z,100859.00
2019-01-18T06:44:07.980Z,100865.00
2019-01-18T06:46:38.251Z,100868.00
2019-01-18T06:49:09.813Z,100864.00
2019-01-18T06:51:41.089Z,100868.00
2019-01-18T06:54:11.445Z,100881.00
2019-01-18T06:56:41.736Z,100881.00
2019-01-18T06:59:11.885Z,100876.00
2019-01-18T07:01:42.096Z,100880.00
2019-01-18T07:04:12.307Z,100879.00
2019-01-18T07:06:42.623Z,100898.00
2019-01-18T07:09:12.198Z,100891.00
2019-01-18T07:11:42.499Z,100882.00
2019-01-18T07:14:12.770Z,100891.00
2019-01-18T07:16:43.429Z,100889.00
2019-01-18T07:19:13.772Z,100893.00
2019-01-18T07:21:44.198Z,100904.00
2019-01-18T07:24:14.732Z,100907.00
2019-01-18T07:26:45.322Z,100907.00
2019-01-18T07:29:15.628Z,100894.00
2019-01-18T07:31:46.310Z,100923.00
2019-01-18T07:34:17.392Z,100929.00
2019-01-18T07:36:48.361Z,100927.00
2019-01-18T07:39:22.355Z,100927.00
2019-01-18T07:41:51.043Z,100934.00
2019-01-18T07:44:21.566Z,100933.00
2019-01-18T07:46:52.077Z,100936.00
2019-01-18T07:49:22.972Z,100934.00
2019-01-18T07:51:53.307Z,100934.00
2019-01-18T07:54:23.761Z,100944.00
2019-01-18T07:56:54.520Z,100936.00
2019-01-18T07:59:25.333Z,100942.00
2019-01-18T08:01:55.869Z,100947.00
2019-01-18T08:04:26.239Z,100942.00
2019-01-18T08:06:56.517Z,100947.00
2019-01-18T08:09:27.409Z,100947.00
2019-01-18T08:11:57.907Z,100936.00
2019-01-18T08:14:29.991Z,100956.00
2019-01-18T08:17:02.203Z,100957.00
2019-01-18T08:19:32.785Z,100960.00
2019-01-18T08:22:03.498Z,100961.00
2019-01-18T08:24:34.401Z,100967.00
2019-01-18T08:27:05.525Z,100966.00
2019-01-18T08:29:37.231Z,100967.00
2019-01-18T08:32:07.696Z,100981.00
2019-01-18T08:34:38.187Z,100980.00
2019-01-18T08:37:08.735Z,100985.00
2019-01-18T08:39:39.239Z,100991.00
2019-01-18T08:42:09.761Z,100987.00
2019-01-18T08:44:40.273Z,100978.00
2019-01-18T08:47:10.715Z,100987.00
2019-01-18T08:49:44.117Z,100994.00
2019-01-18T08:52:14.756Z,100992.00
2019-01-18T08:54:45.655Z,101001.00
2019-01-18T08:57:16.288Z,100995.00
2019-01-18T08:59:47.513Z,101003.00
2019-01-18T09:02:18.367Z,101009.00
2019-01-18T09:04:48.868Z,101008.00
2019-01-18T09:07:19.558Z,101014.00
2019-01-18T09:09:50.066Z,101016.00
2019-01-18T09:12:20.724Z,101021.00
2019-01-18T09:14:51.236Z,101030.00
2019-01-18T09:17:21.713Z,101024.00
2019-01-18T09:19:52.471Z,101029.00
2019-01-18T09:22:23.036Z,101028.00
2019-01-18T09:24:53.728Z,101030.00
2019-01-18T09:27:24.231Z,101040.00
2019-01-18T09:29:54.991Z,101038.00
2019-01-18T09:32:25.585Z,101046.00
2019-01-18T09:34:56.229Z,101032.00
2019-01-18T09:37:26.970Z,101044.00
2019-01-18T09:39:57.483Z,101051.00
2019-01-18T09:42:28.525Z,101052.00
2019-01-18T09:44:58.847Z,101050.00
2019-01-18T09:47:29.610Z,101050.00
2019-01-18T09:50:00.243Z,101055.00
2019-01-18T09:52:32.476Z,101044.00
2019-01-18T09:55:02.881Z,101059.00
2019-01-18T09:57:33.577Z,101061.00
2019-01-18T10:00:05.346Z,101063.00
2019-01-18T10:02:36.048Z,101062.00
2019-01-18T10:05:07.531Z,101060.00
2019-01-18T10:07:38.121Z,101067.00
2019-01-18T10:10:11.394Z,101063.00
2019-01-18T10:12:42.231Z,101067.00
2019-01-18T10:15:36.391Z,101061.00
2019-01-18T10:18:07.592Z,101060.00
2019-01-18T10:20:38.191Z,101068.00
2019-01-18T10:23:08.657Z,101058.00
2019-01-18T10:25:38.851Z,101068.00
2019-01-18T10:28:09.595Z,101077.00
2019-01-18T10:30:40.244Z,101079.00
2019-01-18T10:33:10.921Z,101067.00
2019-01-18T10:35:41.927Z,101079.00
2019-01-18T10:38:12.786Z,101064.00
2019-01-18T10:40:43.460Z,101071.00
2019-01-18T10:43:13.897Z,101066.00
2019-01-18T10:45:44.590Z,101059.00
2019-01-18T10:48:15.918Z,101072.00
2019-01-18T10:50:47.111Z,101057.00
2019-01-18T10:53:17.524Z,101065.00
2019-01-18T10:55:50.560Z,101067.00
2019-01-18T10:58:21.434Z,101071.00
2019-01-18T11:00:51.942Z,101073.00
2019-01-18T11:03:22.990Z,101069.00
2019-01-18T11:05:53.653Z,101080.00
2019-01-18T11:08:24.498Z,101070.00
2019-01-18T11:10:55.027Z,101060.00
2019-01-18T11:13:25.685Z,101074.00
2019-01-18T11:15:56.322Z,101064.00
2019-01-18T11:18:27.032Z,101068.00
2019-01-18T11:21:21.152Z,101070.00
2019-01-18T11:23:51.451Z,101061.00
2019-01-18T11:26:22.256Z,101070.00
2019-01-18T11:28:53.124Z,101069.00
2019-01-18T11:31:23.893Z,101056.00
2019-01-18T11:33:54.732Z,101071.00
2019-01-18T11:36:25.742Z,101062.00
2019-01-18T11:38:56.220Z,101059.00
2019-01-18T11:41:26.953Z,101069.00
2019-01-18T11:43:57.830Z,101060.00
2019-01-18T11:46:28.558Z,101065.00
2019-01-18T11:49:00.624Z,101057.00
2019-01-18T11:51:31.374Z,101065.00
2019-01-18T11:54:02.026Z,101057.00
2019-01-18T11:56:32.713Z,101054.00
2019-01-18T11:59:04.206Z,101065.00
2019-01-18T12:01:35.250Z,101068.00
2019-01-18T12:04:06.429Z,101066.00
2019-01-18T12:06:36.982Z,101061.00
2019-01-18T12:09:08.795Z,101062.00
2019-01-18T12:11:42.454Z,101055.00
2019-01-18T12:14:12.899Z,101056.00
2019-01-18T12:16:44.122Z,101056.00
2019-01-18T12:19:14.795Z,101051.00
2019-01-18T12:21:45.492Z,101057.00
2019-01-18T12:24:18.954Z,101056.00
2019-01-18T12:26:52.550Z,101059.00
2019-01-18T12:29:23.096Z,101069.00
2019-01-18T12:31:53.772Z,101052.00
2019-01-18T12:34:24.286Z,101057.00
2019-01-18T12:36:58.932Z,101067.00
2019-01-18T12:39:27.662Z,101061.00
2019-01-18T12:41:58.200Z,101055.00
2019-01-18T12:44:28.742Z,101068.00
2019-01-18T12:46:59.738Z,101061.00
2019-01-18T12:49:30.267Z,101049.00
2019-01-18T12:52:00.695Z,101058.00
2019-01-18T12:54:31.145Z,101065.00
2019-01-18T12:57:01.539Z,101061.00
2019-01-18T12:59:34.026Z,101062.00
2019-01-18T13:02:04.819Z,101067.00
2019-01-18T13:04:35.429Z,101072.00
2019-01-18T13:07:05.950Z,101065.00
2019-01-18T13:09:36.364Z,101060.00
2019-01-18T13:12:06.818Z,101067.00
2019-01-18T13:14:37.570Z,101070.00
2019-01-18T13:17:08.227Z,101069.00
2019-01-18T13:19:38.770Z,101075.00
2019-01-18T13:22:09.662Z,101063.00
2019-01-18T13:24:40.247Z,101079.00
2019-01-18T13:27:10.953Z,101075.00
2019-01-18T13:29:41.508Z,101070.00
2019-01-18T13:32:12.170Z,101065.00
2019-01-18T13:34:42.671Z,101060.00
2019-01-18T13:37:13.838Z,101077.00
2019-01-18T13:39:44.831Z,101073.00
2019-01-18T13:42:15.307Z,101084.00
2019-01-18T13:44:45.985Z,101075.00
2019-01-18T13:47:18.548Z,101079.00
2019-01-18T13:49:48.847Z,101078.00
2019-01-18T13:52:19.549Z,101089.00
2019-01-18T13:54:50.108Z,101093.00
2019-01-18T13:57:20.929Z,101086.00
2019-01-18T13:59:51.434Z,101100.00
2019-01-18T14:02:22.405Z,101093.00
2019-01-18T14:04:52.993Z,101106.00
2019-01-18T14:07:23.735Z,101090.00
2019-01-18T14:09:54.549Z,101091.00
2019-01-18T14:12:25.604Z,101088.00
2019-01-18T14:14:56.284Z,101107.00
2019-01-18T14:17:27.317Z,101093.00
2019-01-18T14:19:57.919Z,101102.00
2019-01-18T14:22:28.701Z,101108.00
2019-01-18T14:25:00.401Z,101102.00
2019-01-18T14:27:30.940Z,101110.00
2019-01-18T14:30:01.474Z,101102.00
2019-01-18T14:32:32.219Z,101103.00
2019-01-18T14:35:05.407Z,101114.00
2019-01-18T14:37:36.291Z,101105.00
2019-01-18T14:40:08.470Z,101117.00
2019-01-18T14:42:38.939Z,101116.00
2019-01-18T14:45:18.109Z,101105.00
2019-01-18T14:47:48.831Z,101105.00
2019-01-18T14:50:20.315Z,101106.00
2019-01-18T14:52:51.054Z,101116.00
2019-01-18T14:55:21.556Z,101113.00
2019-01-18T14:57:52.816Z,101121.00
2019-01-18T15:00:41.928Z,101118.00
2019-01-18T15:03:14.678Z,101108.00
2019-01-18T15:05:45.285Z,101120.00
2019-01-18T15:08:16.467Z,101122.00
2019-01-18T15:10:48.505Z,101116.00
2019-01-18T15:13:20.497Z,101126.00
2019-01-18T15:15:51.279Z,101124.00
2019-01-18T15:18:23.104Z,101127.00
2019-01-18T15:20:53.972Z,101128.00
2019-01-18T15:23:25.141Z,101135.00
2019-01-18T15:25:56.012Z,101133.00
2019-01-18T15:28:27.051Z,101129.00
2019-01-18T15:30:57.941Z,101128.00
2019-01-18T15:33:28.995Z,101133.00
2019-01-18T15:35:59.413Z,101136.00
2019-01-18T15:38:29.893Z,101143.00
2019-01-18T15:41:00.713Z,101132.00
2019-01-18T15:43:31.162Z,101146.00
2019-01-18T15:46:02.021Z,101134.00
2019-01-18T15:48:32.635Z,101130.00
2019-01-18T15:51:03.245Z,101140.00
2019-01-18T15:53:33.629Z,101135.00
2019-01-18T15:56:03.935Z,101138.00
2019-01-18T15:58:34.301Z,101146.00
2019-01-18T16:01:04.499Z,101150.00
2019-01-18T16:03:34.844Z,101137.00
2019-01-18T16:06:05.202Z,101151.00
2019-01-18T16:08:35.306Z,101146.00
2019-01-18T16:11:05.559Z,101157.00
2019-01-18T16:13:35.811Z,101146.00
2019-01-18T16:16:14.185Z,101150.00
2019-01-18T16:18:44.383Z,101160.00
2019-01-18T16:21:14.565Z,101150.00
2019-01-18T16:23:44.734Z,101157.00
2019-01-18T16:26:16.048Z,101165.00
2019-01-18T16:28:46.240Z,101160.00
2019-01-18T16:31:16.482Z,101154.00
2019-01-18T16:33:47.987Z,101160.00
2019-01-18T16:36:19.243Z,101154.00
2019-01-18T16:38:49.381Z,101155.00
2019-01-18T16:41:19.874Z,101155.00
2019-01-18T16:43:50.089Z,101153.00
2019-01-18T16:46:23.127Z,101153.00
2019-01-18T16:48:54.321Z,101154.00
2019-01-18T16:51:24.509Z,101158.00
2019-01-18T16:53:54.707Z,101149.00
2019-01-18T16:56:25.239Z,101152.00
2019-01-18T16:58:55.431Z,101158.00
2019-01-18T17:01:25.638Z,101157.00
2019-01-18T17:03:55.819Z,101160.00
2019-01-18T17:06:26.060Z,101153.00
2019-01-18T17:08:57.559Z,101159.00
2019-01-18T17:11:27.800Z,101167.00
2019-01-18T17:13:58.070Z,101167.00
2019-01-18T17:16:28.303Z,101158.00
2019-01-18T17:18:58.513Z,101168.00
2019-01-18T17:21:28.679Z,101164.00
2019-01-18T17:23:58.968Z,101167.00
2019-01-18T17:26:30.317Z,101157.00
2019-01-18T17:29:01.804Z,101163.00
2019-01-18T17:31:32.242Z,101160.00
2019-01-18T17:34:02.328Z,101170.00
2019-01-18T17:36:53.345Z,101165.00
2019-01-18T17:40:02.295Z,101168.00
2019-01-18T17:43:03.305Z,101173.00
2019-01-18T17:46:13.510Z,101178.00
2019-01-18T17:49:17.203Z,101171.00
2019-01-18T17:52:42.477Z,101170.00
2019-01-18T17:55:53.371Z,101177.00
2019-01-18T17:58:47.134Z,101177.00
2019-01-18T18:01:57.538Z,101180.00
2019-01-18T18:04:34.914Z,101164.00
2019-01-18T18:07:40.337Z,101182.00
2019-01-18T18:10:57.947Z,101193.00
2019-01-18T18:14:02.213Z,101181.00
2019-01-18T18:17:03.545Z,101196.00
2019-01-18T18:20:07.774Z,101203.00
2019-01-18T18:23:11.774Z,101205.00
2019-01-18T18:25:59.248Z,101196.00
2019-01-18T18:29:16.868Z,101192.00
2019-01-18T18:32:25.656Z,101203.00
2019-01-18T18:35:38.020Z,101195.00
2019-01-18T18:38:49.246Z,101210.00
2019-01-18T18:41:52.268Z,101206.00
2019-01-18T18:45:11.706Z,101205.00
2019-01-18T18:48:01.508Z,101219.00
2019-01-18T18:51:00.540Z,101205.00
2019-01-18T18:54:01.388Z,101212.00
2019-01-18T18:57:11.628Z,101217.00
2019-01-18T18:59:49.538Z,101217.00
2019-01-18T19:02:46.672Z,101217.00
2019-01-18T19:05:27.361Z,101219.00
2019-01-18T19:08:39.722Z,101213.00
2019-01-18T19:11:35.727Z,101200.00
2019-01-18T19:14:39.214Z,101205.00
2019-01-18T19:17:53.834Z,101214.00
2019-01-18T19:21:19.910Z,101211.00
2019-01-18T19:24:15.012Z,101200.00
2019-01-18T19:27:17.042Z,101206.00
2019-01-18T19:30:40.300Z,101203.00
2019-01-18T19:33:29.059Z,101211.00
2019-01-18T19:36:32.692Z,101210.00
2019-01-18T19:39:26.806Z,101209.00
2019-01-18T19:42:30.736Z,101216.00
2019-01-18T19:45:25.757Z,101208.00
2019-01-18T19:48:31.432Z,101201.00
2019-01-18T19:51:54.997Z,101217.00
2019-01-18T19:54:36.242Z,101203.00
2019-01-18T19:57:56.903Z,101210.00
2019-01-18T20:01:12.407Z,101216.00
2019-01-18T20:04:27.729Z,101220.00
2019-01-18T20:07:27.058Z,101216.00
2019-01-18T20:10:35.434Z,101222.00
2019-01-18T20:13:26.748Z,101225.00
2019-01-18T20:16:33.727Z,101221.00
2019-01-18T20:19:29.362Z,101222.00
2019-01-18T20:22:24.737Z,101233.00
2019-01-18T20:25:45.153Z,101229.00
2019-01-18T20:28:45.079Z,101227.00
2019-01-18T20:31:57.126Z,101223.00
2019-01-18T20:35:17.738Z,101236.00
2019-01-18T20:38:18.268Z,101221.00
2019-01-18T20:41:41.733Z,101228.00
2019-01-18T20:44:59.775Z,101236.00
2019-01-18T20:48:06.680Z,101236.00
2019-01-18T20:51:16.786Z,101237.00
2019-01-18T20:54:44.887Z,101238.00
2019-01-18T20:57:42.780Z,101247.00
2019-01-18T21:00:52.989Z,101245.00
2019-01-18T21:03:36.385Z,101237.00
2019-01-18T21:06:47.000Z,101252.00
2019-01-18T21:10:03.110Z,101247.00
2019-01-18T21:13:05.345Z,101241.00
2019-01-18T21:16:40.948Z,101245.00
2019-01-18T21:20:00.418Z,101246.00
2019-01-18T21:23:12.062Z,101253.00
2019-01-18T21:26:32.987Z,101260.00
2019-01-18T21:29:27.441Z,101263.00
2019-01-18T21:32:30.588Z,101255.00
2019-01-18T21:35:51.294Z,101262.00
2019-01-18T21:39:20.908Z,101262.00
2019-01-18T21:42:18.571Z,101262.00
2019-01-18T21:45:45.187Z,101264.00
2019-01-18T21:48:40.207Z,101257.00
2019-01-18T21:51:21.359Z,101253.00
2019-01-18T21:54:17.977Z,101249.00
2019-01-18T21:57:23.230Z,101251.00
2019-01-18T22:00:21.570Z,101260.00
2019-01-18T22:03:46.967Z,101265.00
2019-01-18T22:06:55.536Z,101263.00
2019-01-18T22:09:37.173Z,101264.00
2019-01-18T22:12:40.064Z,101263.00
2019-01-18T22:15:59.426Z,101254.00
2019-01-18T22:18:52.017Z,101269.00
2019-01-18T22:21:42.270Z,101260.00
2019-01-18T22:24:40.615Z,101282.00
2019-01-18T22:28:13.103Z,101273.00
2019-01-18T22:31:27.191Z,101274.00
2019-01-18T22:34:06.111Z,101262.00
2019-01-18T22:37:12.309Z,101257.00
2019-01-18T22:40:35.687Z,101280.00
2019-01-18T22:43:19.778Z,101275.00
2019-01-18T22:46:36.983Z,101273.00
2019-01-18T22:49:51.467Z,101270.00
2019-01-18T22:52:35.087Z,101267.00
2019-01-18T22:55:41.649Z,101265.00
2019-01-18T22:58:46.209Z,101262.00
2019-01-18T23:01:54.625Z,101263.00
2019-01-18T23:04:59.863Z,101270.00
2019-01-18T23:08:26.141Z,101268.00
2019-01-18T23:11:32.966Z,101274.00
2019-01-18T23:14:38.976Z,101278.00
2019-01-18T23:17:28.303Z,101264.00
2019-01-18T23:20:54.599Z,101266.00
2019-01-18T23:24:07.158Z,101262.00
2019-01-18T23:27:18.210Z,101269.00
2019-01-18T23:30:22.895Z,101274.00
2019-01-18T23:33:38.140Z,101270.00
2019-01-18T23:36:34.739Z,101264.00
2019-01-18T23:39:46.195Z,101262.00
2019-01-18T23:42:52.301Z,101273.00
2019-01-18T23:46:03.921Z,101270.00
2019-01-18T23:49:26.230Z,101268.00
2019-01-18T23:52:41.807Z,101266.00
2019-01-18T23:55:55.573Z,101260.00
2019-01-18T23:58:37.882Z,101259.00
